TimeEDT,TemperatureF,Dew PointF,Humidity,Sea Level PressureIn,VisibilityMPH,Wind Direction,Wind SpeedMPH,Gust SpeedMPH,PrecipitationIn,Events,Conditions,WindDirDegrees,DateUTC
12:51 AM,21.2,6.8,54,-9999,90.0,WNW,56.4,62.1,N/A,,Partly Cloudy,290,2013-04-05 04:51:00
1:54 AM,21.2,6.8,54,-9999,90.0,WNW,50.6,56.4,N/A,,Partly Cloudy,290,2013-04-05 05:54:00
2:51 AM,19.4,8.6,63,-9999,80.0,WNW,49.5,55.2,N/A,,Scattered Clouds,290,2013-04-05 06:51:00
3:51 AM,19.4,8.6,63,-9999,80.0,WNW,46.0,-,N/A,,Mostly Cloudy,290,2013-04-05 07:51:00
4:53 AM,19.4,8.6,63,-9999,65.0,WNW,42.6,-,N/A,,Overcast,290,2013-04-05 08:53:00
5:51 AM,19.4,6.8,58,-9999,60.0,WNW,46.0,51.8,N/A,,Overcast,290,2013-04-05 09:51:00
6:50 AM,19.4,5.0,54,-9999,70.0,WNW,44.9,-,N/A,,Mostly Cloudy,290,2013-04-05 10:50:00
7:54 AM,21.2,6.8,54,-9999,70.0,WNW,41.4,-,N/A,,Mostly Cloudy,290,2013-04-05 11:54:00
8:52 AM,21.2,5.0,50,-9999,70.0,WNW,40.3,-,N/A,,Overcast,290,2013-04-05 12:52:00
9:52 AM,21.2,6.8,54,-9999,70.0,WNW,49.5,-,N/A,,Mostly Cloudy,300,2013-04-05 13:52:00
10:58 AM,21.2,6.8,54,-9999,60.0,WNW,48.3,-,N/A,,Mostly Cloudy,290,2013-04-05 14:58:00
11:54 AM,19.4,12.2,74,-9999,0.8,WNW,42.6,-,N/A,,Overcast,290,2013-04-05 15:54:00
12:55 PM,19.4,15.8,86,-9999,30.0,WNW,39.1,-,N/A,,Overcast,290,2013-04-05 16:55:00
1:55 PM,19.4,17.6,93,-9999,35.0,WNW,38.0,46.0,N/A,,Mostly Cloudy,300,2013-04-05 17:55:00
2:53 PM,17.6,14.0,86,-9999,40.0,NW,48.3,58.7,N/A,,Mostly Cloudy,310,2013-04-05 18:53:00
3:59 PM,17.6,15.8,93,-9999,1.0,NW,56.4,64.4,N/A,,Mostly Cloudy,310,2013-04-05 19:59:00
4:51 PM,14.0,14.0,100,-9999,0.1,NW,52.9,57.5,N/A,Fog-Snow,Light Snow Showers,310,2013-04-05 20:51:00
5:49 PM,14.0,14.0,100,-9999,0.0,NW,55.2,65.6,N/A,Fog-Snow,Light Snow Showers,320,2013-04-05 21:49:00
6:51 PM,14.0,14.0,100,-9999,0.0,NW,58.7,63.3,N/A,Fog-Snow,Light Freezing Fog,310,2013-04-05 22:51:00
7:50 PM,12.2,12.2,100,-9999,0.0,NW,55.2,63.3,N/A,Fog-Snow,Light Snow Showers,310,2013-04-05 23:50:00
8:54 PM,10.4,10.4,100,-9999,0.0,NW,58.7,66.7,N/A,Fog,Light Freezing Fog,320,2013-04-06 00:54:00
9:50 PM,8.6,8.6,100,-9999,0.0,NW,70.2,77.1,N/A,Fog-Snow,Light Freezing Fog,320,2013-04-06 01:50:00
10:48 PM,6.8,6.8,100,-9999,0.0,NW,67.9,80.6,N/A,Fog-Snow,Light Freezing Fog,310,2013-04-06 02:48:00
11:49 PM,6.8,6.8,100,-9999,0.0,NW,61.0,-,N/A,Fog-Snow,Light Freezing Fog,320,2013-04-06 03:49:00